createdAt,value
2019-06-26T00:01:05.179Z,20.80
2019-06-26T00:03:34.597Z,20.80
2019-06-26T00:06:04.025Z,20.80
2019-06-26T00:11:08.511Z,20.70
2019-06-26T00:13:37.892Z,20.60
2019-06-26T00:16:07.381Z,20.50
2019-06-26T00:18:36.883Z,20.50
2019-06-26T00:21:06.376Z,20.40
2019-06-26T00:23:35.787Z,20.40
2019-06-26T00:26:05.297Z,20.30
2019-06-26T00:28:34.742Z,20.30
2019-06-26T00:31:04.196Z,20.20
2019-06-26T00:33:33.619Z,20.20
2019-06-26T00:36:03.121Z,20.20
2019-06-26T00:41:07.564Z,20.10
2019-06-26T00:43:42.209Z,20.10
2019-06-26T00:46:08.124Z,20.00
2019-06-26T00:48:37.553Z,20.00
2019-06-26T00:51:06.944Z,19.90
2019-06-26T00:53:36.612Z,19.90
2019-06-26T00:58:41.493Z,19.90
2019-06-26T01:01:10.990Z,19.80
2019-06-26T01:03:41.593Z,19.90
2019-06-26T01:06:12.812Z,19.80
2019-06-26T01:08:42.412Z,19.80
2019-06-26T01:11:11.771Z,19.80
2019-06-26T01:16:22.006Z,19.80
2019-06-26T01:18:51.364Z,19.70
2019-06-26T01:21:20.729Z,19.80
2019-06-26T01:23:50.263Z,19.70
2019-06-26T01:26:19.700Z,19.70
2019-06-26T01:28:49.109Z,19.70
2019-06-26T01:31:19.452Z,19.70
2019-06-26T01:33:48.884Z,19.70
2019-06-26T01:38:52.829Z,19.70
2019-06-26T01:41:22.263Z,19.70
2019-06-26T01:43:51.957Z,19.60
2019-06-26T01:46:21.327Z,19.60
2019-06-26T01:48:50.893Z,19.60
2019-06-26T01:51:20.320Z,19.60
2019-06-26T01:56:24.546Z,19.50
2019-06-26T01:58:53.936Z,19.50
2019-06-26T02:01:23.365Z,19.50
2019-06-26T02:03:52.984Z,19.50
2019-06-26T02:06:22.817Z,19.50
2019-06-26T02:08:52.378Z,19.50
2019-06-26T02:13:56.510Z,19.40
2019-06-26T02:16:25.853Z,19.40
2019-06-26T02:18:59.759Z,19.40
2019-06-26T02:21:29.756Z,19.30
2019-06-26T02:23:59.298Z,19.30
2019-06-26T02:26:28.870Z,19.20
2019-06-26T02:31:33.512Z,19.20
2019-06-26T02:34:02.953Z,19.10
2019-06-26T02:36:32.505Z,19.10
2019-06-26T02:39:01.943Z,19.10
2019-06-26T02:41:32.611Z,19.10
2019-06-26T02:44:02.063Z,19.10
2019-06-26T02:46:31.568Z,19.10
2019-06-26T02:49:01.060Z,19.10
2019-06-26T02:51:30.656Z,19.10
2019-06-26T02:54:00.026Z,19.10
2019-06-26T02:56:29.573Z,19.00
2019-06-26T02:58:58.999Z,19.00
2019-06-26T03:01:28.430Z,18.90
2019-06-26T03:03:57.892Z,19.00
2019-06-26T03:06:27.425Z,19.00
2019-06-26T03:08:56.790Z,19.00
2019-06-26T03:11:26.224Z,19.00
2019-06-26T03:13:55.604Z,19.10
2019-06-26T03:16:25.029Z,19.10
2019-06-26T03:21:29.889Z,19.10
2019-06-26T03:23:59.322Z,19.10
2019-06-26T03:26:28.762Z,19.10
2019-06-26T03:28:58.161Z,19.20
2019-06-26T03:31:27.661Z,19.20
2019-06-26T03:33:57.083Z,19.20
2019-06-26T03:36:26.377Z,19.30
2019-06-26T03:38:55.902Z,19.20
2019-06-26T03:41:25.299Z,19.20
2019-06-26T03:43:54.849Z,19.20
2019-06-26T03:46:24.213Z,19.10
2019-06-26T03:48:53.713Z,19.10
2019-06-26T03:51:23.036Z,19.10
2019-06-26T03:53:52.513Z,19.10
2019-06-26T03:56:22.000Z,19.10
2019-06-26T03:58:51.365Z,19.10
2019-06-26T04:03:57.531Z,19.10
2019-06-26T04:06:27.172Z,19.10
2019-06-26T04:08:56.645Z,19.20
2019-06-26T04:11:26.011Z,19.20
2019-06-26T04:13:55.368Z,19.20
2019-06-26T04:16:30.442Z,19.30
2019-06-26T04:18:59.887Z,19.30
2019-06-26T04:21:29.481Z,19.40
2019-06-26T04:23:59.086Z,19.40
2019-06-26T04:29:03.260Z,19.60
2019-06-26T04:31:32.898Z,19.70
2019-06-26T04:34:03.490Z,19.80
2019-06-26T04:36:33.060Z,19.90
2019-06-26T04:41:37.262Z,20.00
2019-06-26T04:44:06.941Z,20.10
2019-06-26T04:46:36.369Z,20.20
2019-06-26T04:49:05.761Z,20.30
2019-06-26T04:51:35.116Z,20.40
2019-06-26T04:54:04.546Z,20.50
2019-06-26T04:59:08.997Z,20.70
2019-06-26T05:01:38.672Z,20.80
2019-06-26T05:04:08.175Z,21.00
2019-06-26T05:06:37.526Z,21.10
2019-06-26T05:09:07.427Z,21.20
2019-06-26T05:11:36.817Z,21.40
2019-06-26T05:14:06.214Z,21.70
2019-06-26T05:16:36.700Z,22.70
2019-06-26T05:19:06.076Z,25.10
2019-06-26T05:21:35.435Z,26.90
2019-06-26T05:26:39.658Z,31.00
2019-06-26T05:29:09.111Z,32.60
2019-06-26T05:34:27.027Z,34.50
2019-06-26T05:36:56.497Z,35.00
2019-06-26T05:39:25.945Z,35.70
2019-06-26T05:41:55.512Z,36.10
2019-06-26T05:44:24.979Z,36.80
2019-06-26T05:46:54.550Z,36.80
2019-06-26T05:49:24.004Z,37.30
2019-06-26T05:51:53.605Z,37.90
2019-06-26T05:54:23.094Z,38.00
2019-06-26T05:56:52.527Z,38.00
2019-06-26T05:59:21.881Z,38.10
2019-06-26T06:01:51.409Z,37.70
2019-06-26T06:04:20.767Z,37.60
2019-06-26T06:06:50.263Z,37.70
2019-06-26T06:09:19.689Z,38.30
2019-06-26T06:11:49.054Z,38.20
2019-06-26T06:14:18.658Z,38.30
2019-06-26T06:16:48.207Z,37.50
2019-06-26T06:19:17.859Z,37.20
2019-06-26T06:21:47.221Z,37.90
2019-06-26T06:24:16.544Z,38.60
2019-06-26T06:26:45.982Z,38.40
2019-06-26T06:29:15.337Z,38.50
2019-06-26T06:31:45.735Z,37.20
2019-06-26T06:34:15.128Z,35.50
2019-06-26T06:36:44.596Z,34.10
2019-06-26T06:41:48.999Z,31.90
2019-06-26T06:44:18.428Z,31.20
2019-06-26T06:47:02.812Z,31.40
2019-06-26T06:49:18.902Z,31.50
2019-06-26T06:54:23.805Z,32.60
2019-06-26T06:56:53.232Z,33.10
2019-06-26T06:59:22.553Z,33.70
2019-06-26T07:01:52.053Z,34.40
2019-06-26T07:04:21.729Z,34.90
2019-06-26T07:06:51.246Z,35.50
2019-06-26T07:09:20.805Z,35.30
2019-06-26T07:11:50.200Z,35.20
2019-06-26T07:16:54.113Z,34.20
2019-06-26T07:19:23.642Z,33.20
2019-06-26T07:21:53.043Z,32.40
2019-06-26T07:24:22.566Z,31.70
2019-06-26T07:26:52.044Z,31.30
2019-06-26T07:29:21.516Z,30.90
2019-06-26T07:34:26.605Z,30.40
2019-06-26T07:36:55.962Z,30.10
2019-06-26T07:39:25.428Z,30.00
2019-06-26T07:41:55.578Z,29.90
2019-06-26T07:44:25.046Z,29.90
2019-06-26T07:46:54.542Z,29.90
2019-06-26T07:51:58.760Z,29.90
2019-06-26T07:54:28.118Z,30.00
2019-06-26T07:56:57.510Z,30.30
2019-06-26T07:59:26.900Z,30.50
2019-06-26T08:01:56.447Z,30.60
2019-06-26T08:04:25.800Z,30.60
2019-06-26T08:06:55.173Z,30.60
2019-06-26T08:09:24.714Z,30.80
2019-06-26T08:11:54.094Z,30.90
2019-06-26T08:14:23.519Z,30.90
2019-06-26T08:16:53.065Z,31.30
2019-06-26T08:21:57.197Z,31.30
2019-06-26T08:24:26.725Z,31.20
2019-06-26T08:26:56.103Z,31.00
2019-06-26T08:29:25.452Z,31.10
2019-06-26T08:31:54.856Z,31.40
2019-06-26T08:34:24.236Z,31.80
2019-06-26T08:36:53.676Z,32.40
2019-06-26T08:39:23.097Z,33.30
2019-06-26T08:41:52.479Z,34.50
2019-06-26T08:44:22.005Z,35.10
2019-06-26T08:46:51.429Z,36.40
2019-06-26T08:49:25.444Z,37.10
2019-06-26T08:51:52.022Z,38.30
2019-06-26T08:54:21.453Z,39.20
2019-06-26T08:56:50.898Z,40.10
2019-06-26T09:01:55.369Z,41.00
2019-06-26T09:04:24.732Z,40.60
2019-06-26T09:06:54.113Z,40.70
2019-06-26T09:09:23.638Z,40.80
2019-06-26T09:11:53.057Z,40.40
2019-06-26T09:14:28.450Z,40.60
2019-06-26T09:16:57.739Z,40.50
2019-06-26T09:19:27.061Z,40.90
2019-06-26T09:21:56.447Z,41.10
2019-06-26T09:24:25.801Z,41.30
2019-06-26T09:26:55.350Z,41.40
2019-06-26T09:29:24.772Z,42.40
2019-06-26T09:31:55.213Z,42.80
2019-06-26T09:34:24.557Z,43.10
2019-06-26T09:36:53.841Z,42.50
2019-06-26T09:39:23.133Z,41.70
2019-06-26T09:44:27.093Z,40.50
2019-06-26T09:46:56.693Z,40.10
2019-06-26T09:49:26.079Z,40.10
2019-06-26T09:51:55.496Z,39.80
2019-06-26T09:56:59.614Z,39.30
2019-06-26T09:59:29.078Z,38.70
2019-06-26T10:01:58.589Z,38.70
2019-06-26T10:04:27.952Z,38.50
2019-06-26T10:09:38.643Z,39.20
2019-06-26T10:12:08.137Z,38.80
2019-06-26T10:14:47.406Z,38.40
2019-06-26T10:17:08.658Z,38.00
2019-06-26T10:19:38.051Z,38.30
2019-06-26T10:22:07.555Z,38.50
2019-06-26T10:24:36.966Z,39.20
2019-06-26T10:27:06.454Z,39.70
2019-06-26T10:29:48.418Z,39.80
2019-06-26T10:32:17.977Z,39.30
2019-06-26T10:34:47.347Z,38.70
2019-06-26T10:37:16.871Z,38.80
2019-06-26T10:39:46.299Z,39.20
2019-06-26T10:42:15.752Z,39.00
2019-06-26T10:44:45.146Z,38.70
2019-06-26T10:47:18.354Z,38.40
2019-06-26T10:49:47.709Z,38.10
2019-06-26T10:52:18.137Z,38.00
2019-06-26T10:54:47.665Z,37.90
2019-06-26T10:57:17.378Z,38.10
2019-06-26T10:59:46.775Z,38.20
2019-06-26T11:02:17.291Z,38.00
2019-06-26T11:04:46.709Z,37.90
2019-06-26T11:07:16.195Z,37.60
2019-06-26T11:09:45.608Z,37.40
2019-06-26T11:12:15.010Z,37.30
2019-06-26T11:14:45.478Z,37.10
2019-06-26T11:17:14.993Z,36.90
2019-06-26T11:19:44.680Z,36.80
2019-06-26T11:22:14.042Z,36.60
2019-06-26T11:24:43.385Z,36.50
2019-06-26T11:29:47.488Z,36.90
2019-06-26T11:32:16.900Z,36.80
2019-06-26T11:34:46.378Z,36.70
2019-06-26T11:37:15.734Z,36.60
2019-06-26T11:39:45.418Z,36.70
2019-06-26T11:42:15.058Z,36.50
2019-06-26T11:47:19.581Z,36.30
2019-06-26T11:49:59.453Z,36.40
2019-06-26T11:52:20.215Z,36.30
2019-06-26T11:55:01.751Z,36.20
2019-06-26T11:57:20.880Z,36.10
2019-06-26T11:59:50.374Z,36.20
2019-06-26T12:04:54.950Z,36.30
2019-06-26T12:07:24.443Z,36.30
2019-06-26T12:09:54.007Z,36.30
2019-06-26T12:12:23.313Z,36.10
2019-06-26T12:14:52.735Z,35.80
2019-06-26T12:17:22.150Z,35.70
2019-06-26T12:19:51.560Z,35.90
2019-06-26T12:22:21.025Z,35.80
2019-06-26T12:24:50.532Z,35.70
2019-06-26T12:27:20.127Z,35.60
2019-06-26T12:29:49.621Z,35.60
2019-06-26T12:32:19.036Z,35.60
2019-06-26T12:34:48.400Z,35.70
2019-06-26T12:37:18.007Z,35.60
2019-06-26T12:39:47.679Z,35.70
2019-06-26T12:42:17.051Z,35.60
2019-06-26T12:44:46.601Z,35.60
2019-06-26T12:47:16.848Z,35.60
2019-06-26T12:49:46.249Z,35.50
2019-06-26T12:52:17.092Z,35.40
2019-06-26T12:54:48.572Z,35.40
2019-06-26T12:57:18.132Z,35.50
2019-06-26T12:59:57.284Z,35.40
2019-06-26T13:04:54.333Z,35.20
2019-06-26T13:07:23.700Z,35.20
2019-06-26T13:09:53.071Z,35.10
2019-06-26T13:12:22.740Z,35.20
2019-06-26T13:14:52.115Z,35.30
2019-06-26T13:17:21.656Z,35.40
2019-06-26T13:22:31.799Z,35.20
2019-06-26T13:25:01.377Z,35.10
2019-06-26T13:27:32.016Z,35.10
2019-06-26T13:30:01.482Z,35.10
2019-06-26T13:32:31.013Z,35.10
2019-06-26T13:35:00.583Z,35.00
2019-06-26T13:37:29.971Z,34.90
2019-06-26T13:39:59.622Z,35.00
2019-06-26T13:42:29.314Z,35.00
2019-06-26T13:44:59.013Z,35.00
2019-06-26T13:47:28.533Z,34.80
2019-06-26T13:49:57.875Z,34.60
2019-06-26T13:52:27.501Z,34.40
2019-06-26T13:54:58.098Z,34.40
2019-06-26T13:57:27.627Z,34.50
2019-06-26T13:59:57.292Z,34.60
2019-06-26T14:02:26.740Z,34.80
2019-06-26T14:04:56.108Z,34.80
2019-06-26T14:07:25.643Z,34.70
2019-06-26T14:09:55.127Z,34.70
2019-06-26T14:12:24.727Z,34.60
2019-06-26T14:14:57.777Z,34.40
2019-06-26T14:17:25.205Z,34.40
2019-06-26T14:19:54.603Z,34.30
2019-06-26T14:22:24.182Z,34.40
2019-06-26T14:24:54.347Z,34.30
2019-06-26T14:27:23.876Z,34.20
2019-06-26T14:29:53.230Z,34.30
2019-06-26T14:32:22.652Z,34.40
2019-06-26T14:34:52.355Z,34.40
2019-06-26T14:37:21.703Z,34.40
2019-06-26T14:39:51.086Z,34.40
2019-06-26T14:42:20.835Z,34.30
2019-06-26T14:44:52.672Z,34.30
2019-06-26T14:49:55.607Z,34.10
2019-06-26T14:52:25.206Z,34.10
2019-06-26T14:54:54.833Z,34.00
2019-06-26T14:57:26.088Z,33.90
2019-06-26T14:59:55.532Z,33.90
2019-06-26T15:02:24.933Z,33.90
2019-06-26T15:04:54.453Z,33.90
2019-06-26T15:07:24.163Z,33.80
2019-06-26T15:09:53.743Z,33.80
2019-06-26T15:12:23.170Z,33.80
2019-06-26T15:14:52.565Z,33.60
2019-06-26T15:17:22.060Z,33.60
2019-06-26T15:19:51.448Z,33.60
2019-06-26T15:22:20.772Z,33.60
2019-06-26T15:24:50.344Z,33.50
2019-06-26T15:27:19.869Z,33.50
2019-06-26T15:29:49.373Z,33.40
2019-06-26T15:32:18.898Z,33.40
2019-06-26T15:34:48.564Z,33.40
2019-06-26T15:37:18.453Z,33.40
2019-06-26T15:39:48.227Z,33.30
2019-06-26T15:42:18.060Z,33.30
2019-06-26T15:44:47.437Z,33.20
2019-06-26T15:47:18.545Z,33.10
2019-06-26T15:49:48.095Z,33.10
2019-06-26T15:52:19.150Z,33.10
2019-06-26T15:54:48.643Z,33.10
2019-06-26T15:57:18.728Z,33.10
2019-06-26T15:59:48.324Z,33.10
2019-06-26T16:02:19.643Z,33.00
2019-06-26T16:04:49.645Z,33.00
2019-06-26T16:07:19.045Z,33.00
2019-06-26T16:09:48.649Z,33.00
2019-06-26T16:12:18.033Z,33.00
2019-06-26T16:14:48.400Z,32.90
2019-06-26T16:17:28.696Z,32.90
2019-06-26T16:19:58.150Z,32.80
2019-06-26T16:22:32.100Z,32.80
2019-06-26T16:24:58.605Z,32.80
2019-06-26T16:27:28.439Z,32.80
2019-06-26T16:29:57.803Z,32.70
2019-06-26T16:32:27.970Z,32.70
2019-06-26T16:37:33.995Z,32.60
2019-06-26T16:40:06.648Z,32.50
2019-06-26T16:42:36.244Z,32.40
2019-06-26T16:45:06.161Z,32.40
2019-06-26T16:47:36.630Z,32.40
2019-06-26T16:50:06.828Z,32.30
2019-06-26T16:52:48.656Z,32.30
2019-06-26T16:55:07.453Z,32.20
2019-06-26T16:57:37.180Z,32.30
2019-06-26T17:00:10.369Z,32.20
2019-06-26T17:02:41.024Z,32.20
2019-06-26T17:05:10.539Z,32.10
2019-06-26T17:07:39.987Z,32.10
2019-06-26T17:10:09.521Z,32.00
2019-06-26T17:12:39.953Z,31.90
2019-06-26T17:17:44.569Z,31.80
2019-06-26T17:20:13.965Z,31.80
2019-06-26T17:22:43.582Z,31.80
2019-06-26T17:25:12.981Z,31.70
2019-06-26T17:27:42.535Z,31.70
2019-06-26T17:30:12.090Z,31.70
2019-06-26T17:32:49.157Z,31.70
2019-06-26T17:35:18.534Z,31.60
2019-06-26T17:37:48.055Z,31.60
2019-06-26T17:40:17.649Z,31.60
2019-06-26T17:42:47.170Z,31.50
2019-06-26T17:45:20.545Z,31.30
2019-06-26T17:47:49.980Z,31.20
2019-06-26T17:50:19.397Z,31.10
2019-06-26T17:52:49.049Z,31.00
2019-06-26T17:55:18.496Z,31.00
2019-06-26T18:00:26.437Z,30.80
2019-06-26T18:02:55.898Z,30.80
2019-06-26T18:05:25.457Z,30.70
2019-06-26T18:07:54.775Z,30.60
2019-06-26T18:10:24.201Z,30.50
2019-06-26T18:12:53.572Z,30.40
2019-06-26T18:18:03.550Z,30.30
2019-06-26T18:20:32.980Z,30.20
2019-06-26T18:23:07.193Z,30.10
2019-06-26T18:25:33.557Z,30.10
2019-06-26T18:28:02.981Z,30.00
2019-06-26T18:30:38.375Z,29.90
2019-06-26T18:33:07.801Z,29.80
2019-06-26T18:35:37.283Z,29.70
2019-06-26T18:38:06.756Z,29.70
2019-06-26T18:40:36.250Z,29.60
2019-06-26T18:43:14.232Z,29.50
2019-06-26T18:45:42.401Z,29.40
2019-06-26T18:48:11.868Z,29.40
2019-06-26T18:50:41.220Z,29.30
2019-06-26T18:55:45.386Z,29.10
2019-06-26T18:58:14.736Z,29.00
2019-06-26T19:00:44.090Z,28.90
2019-06-26T19:03:13.541Z,28.80
2019-06-26T19:05:43.109Z,28.70
2019-06-26T19:13:35.897Z,28.40
2019-06-26T19:16:05.266Z,28.30
2019-06-26T19:18:34.616Z,28.20
2019-06-26T19:21:04.016Z,28.10
2019-06-26T19:23:33.583Z,28.00
2019-06-26T19:26:02.985Z,27.90
2019-06-26T19:28:32.400Z,27.80
2019-06-26T19:31:01.838Z,27.70
2019-06-26T19:33:31.158Z,27.60
2019-06-26T19:38:35.374Z,27.40
2019-06-26T19:41:08.362Z,27.30
2019-06-26T19:43:36.209Z,27.20
2019-06-26T19:46:05.638Z,27.10
2019-06-26T19:51:10.114Z,27.00
2019-06-26T19:53:39.474Z,26.90
2019-06-26T19:56:08.872Z,26.90
2019-06-26T19:58:38.471Z,26.80
2019-06-26T20:01:08.867Z,26.70
2019-06-26T20:03:38.286Z,26.70
2019-06-26T20:06:07.776Z,26.50
2019-06-26T20:08:51.879Z,26.50
2019-06-26T20:11:08.145Z,26.40
2019-06-26T20:13:37.752Z,26.30
2019-06-26T20:16:07.118Z,26.30
2019-06-26T20:18:36.586Z,26.20
2019-06-26T20:21:05.940Z,26.10
2019-06-26T20:23:35.502Z,26.00
2019-06-26T20:26:04.981Z,26.00
2019-06-26T20:28:34.372Z,26.00
2019-06-26T20:31:04.003Z,26.00
2019-06-26T20:33:33.513Z,26.00
2019-06-26T20:36:08.319Z,26.00
2019-06-26T20:38:37.750Z,25.90
2019-06-26T20:41:07.300Z,25.90
2019-06-26T20:43:36.905Z,25.80
2019-06-26T20:46:06.334Z,25.70
2019-06-26T20:48:35.949Z,25.70
2019-06-26T20:53:40.612Z,25.60
2019-06-26T20:56:10.289Z,25.50
2019-06-26T20:58:39.712Z,25.50
2019-06-26T21:01:09.244Z,25.40
2019-06-26T21:03:38.608Z,25.40
2019-06-26T21:06:08.145Z,25.30
2019-06-26T21:08:37.634Z,25.20
2019-06-26T21:11:07.169Z,25.20
2019-06-26T21:13:36.598Z,25.10
2019-06-26T21:16:05.923Z,25.00
2019-06-26T21:18:35.333Z,25.00
2019-06-26T21:21:04.723Z,24.90
2019-06-26T21:23:34.229Z,24.90
2019-06-26T21:28:45.343Z,24.80
2019-06-26T21:31:14.706Z,24.70
2019-06-26T21:33:44.081Z,24.60
2019-06-26T21:36:13.407Z,24.60
2019-06-26T21:38:42.965Z,24.50
2019-06-26T21:41:12.505Z,24.50
2019-06-26T21:43:41.858Z,24.40
2019-06-26T21:46:11.251Z,24.40
2019-06-26T21:48:44.733Z,24.30
2019-06-26T21:51:14.010Z,24.30
2019-06-26T21:53:43.475Z,24.30
2019-06-26T21:56:30.944Z,24.20
2019-06-26T21:59:17.920Z,24.10
2019-06-26T22:02:05.174Z,24.10
2019-06-26T22:04:54.241Z,24.00
2019-06-26T22:10:16.171Z,24.00
2019-06-26T22:12:45.722Z,24.00
2019-06-26T22:15:15.278Z,24.00
2019-06-26T22:17:44.707Z,23.90
2019-06-26T22:20:17.865Z,23.90
2019-06-26T22:22:47.309Z,23.90
2019-06-26T22:25:17.878Z,23.80
2019-06-26T22:27:47.339Z,23.70
2019-06-26T22:30:16.906Z,23.60
2019-06-26T22:32:46.402Z,23.60
2019-06-26T22:35:16.192Z,23.60
2019-06-26T22:37:45.553Z,23.60
2019-06-26T22:40:14.959Z,23.50
2019-06-26T22:42:44.666Z,23.50
2019-06-26T22:45:14.083Z,23.50
2019-06-26T22:47:43.489Z,23.40
2019-06-26T22:50:13.857Z,23.40
2019-06-26T22:52:43.261Z,23.40
2019-06-26T22:55:13.914Z,23.40
2019-06-26T22:57:43.386Z,23.30
2019-06-26T23:00:14.801Z,23.30
2019-06-26T23:02:44.421Z,23.20
2019-06-26T23:05:13.811Z,23.20
2019-06-26T23:10:18.348Z,23.20
2019-06-26T23:12:47.682Z,23.10
2019-06-26T23:15:17.058Z,23.10
2019-06-26T23:17:47.616Z,23.10
2019-06-26T23:20:17.139Z,23.10
2019-06-26T23:22:46.899Z,23.10
2019-06-26T23:25:16.346Z,23.00
2019-06-26T23:27:45.923Z,23.00
2019-06-26T23:32:52.439Z,22.90
2019-06-26T23:35:21.813Z,22.90
2019-06-26T23:37:51.323Z,22.80
2019-06-26T23:40:20.861Z,22.80
2019-06-26T23:42:50.229Z,22.70
2019-06-26T23:45:19.668Z,22.70
2019-06-26T23:50:23.669Z,22.70
2019-06-26T23:52:53.941Z,22.70
2019-06-26T23:55:23.493Z,22.60
2019-06-26T23:57:58.985Z,22.60
